Time;durP1;ratioP1;P1;durP2;ratioP2;P2;SDS_P1;SDS_P2;PMS_P1;PMS_P2;Temp;Humidity;BMP_temperature;BMP_pressure;BME280_temperature;BME280_humidity;BME280_pressure;Samples;Min_cycle;Max_cycle;Signal;HPM_P1;HPM_P2
2023/05/21 00:02:33;;;;;;;9.75;7.45;;;23.40;61.40;;;;;;7604174;23;80235;-61
2023/05/21 00:05:33;;;;;;;8.60;6.60;;;23.40;61.40;;;;;;7605432;23;80529;-61
2023/05/21 00:08:35;;;;;;;9.05;6.93;;;23.40;61.40;;;;;;7578973;23;80578;-60
2023/05/21 00:11:35;;;;;;;9.02;6.85;;;23.40;61.40;;;;;;7604936;23;80359;-60
2023/05/21 00:14:36;;;;;;;11.00;7.32;;;23.40;61.50;;;;;;7605132;23;80815;-61
2023/05/21 00:17:36;;;;;;;9.18;7.57;;;23.40;61.40;;;;;;7603184;23;82587;-62
2023/05/21 00:20:37;;;;;;;9.05;6.70;;;23.40;61.50;;;;;;7605568;23;80539;-61
2023/05/21 00:23:38;;;;;;;10.13;7.50;;;23.40;61.40;;;;;;7605318;23;80823;-64
2023/05/21 00:26:39;;;;;;;8.23;6.32;;;23.40;61.50;;;;;;7603598;23;80732;-64
2023/05/21 00:29:40;;;;;;;9.93;7.10;;;23.40;61.50;;;;;;7602717;23;80269;-64
2023/05/21 00:32:40;;;;;;;7.75;6.88;;;23.40;61.50;;;;;;7574961;23;83608;-63
2023/05/21 00:35:41;;;;;;;8.70;6.93;;;23.40;61.40;;;;;;7601691;23;80572;-63
2023/05/21 00:38:45;;;;;;;9.85;7.13;;;23.40;61.40;;;;;;7600905;23;81361;-64
2023/05/21 00:41:47;;;;;;;9.43;6.88;;;23.50;61.40;;;;;;7574999;23;82004;-63
2023/05/21 00:44:47;;;;;;;8.10;7.20;;;23.50;61.40;;;;;;7576418;23;82420;-62
2023/05/21 00:47:48;;;;;;;10.20;7.57;;;23.40;61.30;;;;;;7603927;23;80762;-61
2023/05/21 00:50:49;;;;;;;10.10;7.38;;;23.40;61.40;;;;;;7605312;23;81016;-62
2023/05/21 00:53:51;;;;;;;10.48;7.32;;;23.50;61.40;;;;;;7578630;23;83197;-63
2023/05/21 00:56:52;;;;;;;8.90;7.28;;;23.50;61.40;;;;;;7603572;23;80648;-60
2023/05/21 00:59:52;;;;;;;8.43;6.90;;;23.50;61.30;;;;;;7578123;23;82901;-62
2023/05/21 01:02:53;;;;;;;14.60;8.27;;;23.40;61.30;;;;;;7604217;23;80356;-63
2023/05/21 01:05:58;;;;;;;8.52;7.25;;;23.40;61.30;;;;;;7577922;23;83034;-62
2023/05/21 01:08:59;;;;;;;9.23;6.93;;;23.50;61.40;;;;;;7603686;23;80160;-66
2023/05/21 01:11:59;;;;;;;9.95;7.47;;;23.40;61.30;;;;;;7577680;23;80529;-66
2023/05/21 01:15:00;;;;;;;9.30;6.85;;;23.50;61.30;;;;;;7578911;23;83347;-67
2023/05/21 01:18:00;;;;;;;8.50;6.82;;;23.50;61.40;;;;;;7574736;23;82705;-67
2023/05/21 01:21:01;;;;;;;9.02;6.80;;;23.50;61.30;;;;;;7605542;23;80656;-71
2023/05/21 01:24:04;;;;;;;8.73;6.85;;;23.50;61.30;;;;;;7579259;23;82381;-69
2023/05/21 01:27:06;;;;;;;8.00;6.80;;;23.50;61.40;;;;;;7579006;23;82978;-69
2023/05/21 01:30:07;;;;;;;7.85;6.57;;;23.50;61.40;;;;;;7580223;23;83334;-70
2023/05/21 01:33:07;;;;;;;10.43;7.10;;;23.40;61.40;;;;;;7608032;23;80067;-70
2023/05/21 01:36:08;;;;;;;9.43;7.22;;;23.50;61.40;;;;;;7605882;23;80163;-69
2023/05/21 01:39:08;;;;;;;9.00;7.10;;;23.50;61.50;;;;;;7608016;23;80860;-65
2023/05/21 01:42:09;;;;;;;10.32;7.53;;;23.50;61.40;;;;;;7580159;23;83868;-66
2023/05/21 01:45:09;;;;;;;11.20;7.72;;;23.50;61.40;;;;;;7580096;23;83053;-67
2023/05/21 01:48:11;;;;;;;9.10;7.05;;;23.40;61.40;;;;;;7579127;23;83520;-67
2023/05/21 01:51:11;;;;;;;10.88;6.85;;;23.50;61.50;;;;;;7606722;23;80765;-68
2023/05/21 01:54:13;;;;;;;9.55;6.90;;;23.50;61.50;;;;;;7579521;23;80797;-68
2023/05/21 01:57:15;;;;;;;9.50;6.85;;;23.40;61.50;;;;;;7579151;23;82734;-67
2023/05/21 02:00:16;;;;;;;8.18;6.78;;;23.40;61.40;;;;;;7579396;23;83286;-65
2023/05/21 02:03:16;;;;;;;8.80;6.65;;;23.50;61.40;;;;;;7605428;23;80319;-74
2023/05/21 02:06:17;;;;;;;9.52;7.00;;;23.40;61.40;;;;;;7579373;23;83158;-59
2023/05/21 02:09:17;;;;;;;9.32;8.05;;;23.40;61.50;;;;;;7555165;23;83247;-60
2023/05/21 02:12:18;;;;;;;10.20;6.95;;;23.40;62.10;;;;;;7579594;23;81115;-60
2023/05/21 02:15:19;;;;;;;11.35;7.25;;;23.40;61.60;;;;;;7605572;23;80266;-61
2023/05/21 02:18:20;;;;;;;10.68;7.30;;;23.40;61.50;;;;;;7578365;23;82198;-59
2023/05/21 02:21:20;;;;;;;11.48;7.40;;;23.40;61.50;;;;;;7577936;23;81410;-59
2023/05/21 02:24:23;;;;;;;9.73;7.50;;;23.40;61.50;;;;;;7605906;23;80619;-71
2023/05/21 02:27:23;;;;;;;8.48;6.65;;;23.50;61.60;;;;;;7605190;23;80483;-71
2023/05/21 02:30:24;;;;;;;9.45;7.85;;;23.40;61.60;;;;;;7605053;23;80309;-71
2023/05/21 02:33:24;;;;;;;8.55;7.22;;;23.40;61.50;;;;;;7602735;23;80492;-71
2023/05/21 02:36:27;;;;;;;11.25;7.03;;;23.40;61.50;;;;;;7577052;23;80250;-70
2023/05/21 02:39:28;;;;;;;8.38;6.90;;;23.40;61.70;;;;;;7602453;23;80851;-73
2023/05/21 02:42:28;;;;;;;8.93;6.78;;;23.40;61.30;;;;;;7576471;23;80398;-62
2023/05/21 02:45:29;;;;;;;9.70;7.45;;;23.50;61.40;;;;;;7577774;23;82328;-62
2023/05/21 02:48:29;;;;;;;10.85;7.30;;;23.50;61.40;;;;;;7578710;23;83809;-62
2023/05/21 02:51:30;;;;;;;8.88;6.97;;;23.40;61.30;;;;;;7579315;23;82304;-62
2023/05/21 02:54:31;;;;;;;9.70;7.10;;;23.40;61.30;;;;;;7577930;23;82946;-62
2023/05/21 02:57:31;;;;;;;9.13;7.28;;;23.50;61.40;;;;;;7601509;23;86064;-61
2023/05/21 03:00:32;;;;;;;9.85;7.65;;;23.40;61.30;;;;;;7601704;23;80541;-74
2023/05/21 03:03:33;;;;;;;7.97;6.97;;;23.50;61.40;;;;;;7575095;23;82296;-72
2023/05/21 03:06:35;;;;;;;10.13;7.57;;;23.40;61.40;;;;;;7576934;23;82250;-68
2023/05/21 03:09:36;;;;;;;9.15;7.28;;;23.40;61.50;;;;;;7603472;23;81104;-71
2023/05/21 03:12:37;;;;;;;9.55;7.43;;;23.50;61.30;;;;;;7607464;23;80540;-72
2023/05/21 03:15:37;;;;;;;9.57;7.95;;;23.50;61.30;;;;;;7607206;23;80274;-70
2023/05/21 03:18:38;;;;;;;10.85;7.45;;;23.50;61.40;;;;;;7579717;23;82100;-60
2023/05/21 03:21:38;;;;;;;10.50;7.32;;;23.50;61.30;;;;;;7577902;23;81350;-62
2023/05/21 03:24:40;;;;;;;11.95;7.40;;;23.50;61.30;;;;;;7577895;23;82983;-61
2023/05/21 03:27:40;;;;;;;10.93;7.95;;;23.40;61.20;;;;;;7576866;23;82895;-62
2023/05/21 03:30:53;;;;;;;10.90;7.32;;;23.40;61.30;;;;;;7577347;23;80679;-61
2023/05/21 03:34:15;;;;;;;8.18;6.93;;;23.50;61.30;;;;;;7587899;23;80728;-60
2023/05/21 03:37:15;;;;;;;12.32;7.70;;;23.50;61.20;;;;;;7604006;23;80594;-61
2023/05/21 03:40:16;;;;;;;7.47;6.75;;;23.40;61.20;;;;;;7576430;23;82122;-61
2023/05/21 03:43:18;;;;;;;9.52;7.35;;;23.40;61.20;;;;;;7578890;23;82925;-61
2023/05/21 03:46:19;;;;;;;9.57;7.30;;;23.40;61.30;;;;;;7577117;23;80404;-61
2023/05/21 03:49:48;;;;;;;12.30;8.02;;;23.40;61.40;;;;;;7582157;23;81141;-61
2023/05/21 03:52:49;;;;;;;8.35;6.28;;;23.40;61.20;;;;;;7577497;23;81443;-61
2023/05/21 03:55:53;;;;;;;11.80;7.35;;;23.40;61.20;;;;;;7605614;23;79994;-54
2023/05/21 03:58:55;;;;;;;8.47;6.50;;;23.40;61.10;;;;;;7578043;23;84053;-54
2023/05/21 04:01:56;;;;;;;10.48;6.45;;;23.40;61.20;;;;;;7577444;23;83177;-54
2023/05/21 04:04:56;;;;;;;8.70;7.45;;;23.40;61.30;;;;;;7578161;23;83100;-50
2023/05/21 04:07:59;;;;;;;7.63;6.25;;;23.50;61.40;;;;;;7578444;23;83169;-55
2023/05/21 04:10:59;;;;;;;8.88;6.72;;;23.40;61.30;;;;;;7578901;23;83755;-55
2023/05/21 04:14:00;;;;;;;9.75;8.35;;;23.50;61.20;;;;;;7604888;23;80780;-65
2023/05/21 04:17:03;;;;;;;10.05;7.57;;;23.40;61.10;;;;;;7577988;23;81745;-64
2023/05/21 04:20:04;;;;;;;14.75;8.43;;;23.40;61.00;;;;;;7578032;23;83305;-66
2023/05/21 04:23:04;;;;;;;10.75;8.25;;;23.50;61.10;;;;;;7604876;23;81159;-64
2023/05/21 04:26:06;;;;;;;8.80;7.75;;;23.50;61.20;;;;;;7561895;23;83476;-63
2023/05/21 04:29:07;;;;;;;8.35;7.43;;;23.50;61.10;;;;;;7545460;23;83700;-66
2023/05/21 04:32:08;;;;;;;9.57;7.50;;;23.40;61.00;;;;;;7574717;23;83263;-66
2023/05/21 04:35:09;;;;;;;13.70;8.05;;;23.50;61.10;;;;;;7577614;23;83242;-66
2023/05/21 04:38:11;;;;;;;9.85;7.68;;;23.50;61.10;;;;;;7604301;23;80242;-63
2023/05/21 04:41:13;;;;;;;10.00;7.95;;;23.50;61.10;;;;;;7577303;23;88877;-60
2023/05/21 04:44:16;;;;;;;12.10;7.40;;;23.50;61.10;;;;;;7578204;23;83575;-63
2023/05/21 04:47:19;;;;;;;9.98;7.30;;;23.50;61.00;;;;;;7578190;23;83195;-65
2023/05/21 04:50:19;;;;;;;10.15;7.28;;;23.50;61.10;;;;;;7576596;23;80421;-63
2023/05/21 04:53:20;;;;;;;9.85;6.93;;;23.50;61.10;;;;;;7604250;23;80208;-71
2023/05/21 04:56:22;;;;;;;8.85;6.97;;;23.50;61.10;;;;;;7576891;23;87438;-71
2023/05/21 04:59:22;;;;;;;9.25;7.13;;;23.50;61.20;;;;;;7605586;23;82400;-68
2023/05/21 05:02:23;;;;;;;8.93;6.28;;;23.50;61.10;;;;;;7577054;23;83198;-70
2023/05/21 05:05:23;;;;;;;9.75;6.88;;;23.60;61.10;;;;;;7579236;23;80388;-64
2023/05/21 05:08:24;;;;;;;9.85;6.45;;;23.60;61.20;;;;;;7579442;23;83125;-67
2023/05/21 05:11:25;;;;;;;10.02;6.63;;;23.60;61.20;;;;;;7579700;23;83057;-66
2023/05/21 05:14:26;;;;;;;9.68;6.32;;;23.60;61.10;;;;;;7579877;23;82853;-68
2023/05/21 05:17:26;;;;;;;8.45;6.82;;;23.60;61.10;;;;;;7607223;23;80367;-63
2023/05/21 05:20:27;;;;;;;10.80;6.93;;;23.60;61.10;;;;;;7580121;23;83258;-66
2023/05/21 05:23:27;;;;;;;9.50;6.55;;;23.60;61.10;;;;;;7606740;23;81262;-65
2023/05/21 05:26:28;;;;;;;9.32;6.72;;;23.50;61.10;;;;;;7578771;23;83084;-59
2023/05/21 05:29:29;;;;;;;7.72;5.78;;;23.60;61.00;;;;;;7577411;23;83170;-62
2023/05/21 05:32:31;;;;;;;9.40;6.10;;;23.60;61.10;;;;;;7578943;23;82944;-63
2023/05/21 05:35:31;;;;;;;11.80;6.78;;;23.60;61.10;;;;;;7576780;23;83280;-62
2023/05/21 05:38:32;;;;;;;7.60;6.25;;;23.60;61.10;;;;;;7577213;23;81675;-61
2023/05/21 05:41:32;;;;;;;10.18;6.28;;;23.60;61.30;;;;;;7578387;23;83214;-62
2023/05/21 05:44:33;;;;;;;11.15;5.63;;;23.60;61.20;;;;;;7567918;23;83295;-68
2023/05/21 05:47:34;;;;;;;9.57;5.90;;;23.60;61.30;;;;;;7575834;23;83449;-69
2023/05/21 05:50:35;;;;;;;7.55;5.53;;;23.60;61.20;;;;;;7603652;23;80717;-70
2023/05/21 05:53:35;;;;;;;12.70;5.85;;;23.60;61.30;;;;;;7603048;23;80826;-73
2023/05/21 05:56:36;;;;;;;8.05;5.43;;;23.70;61.10;;;;;;7602789;23;80387;-68
2023/05/21 05:59:38;;;;;;;9.35;6.72;;;23.70;62.40;;;;;;7577788;23;82753;-70
2023/05/21 06:02:39;;;;;;;8.63;6.43;;;23.70;62.10;;;;;;7578717;23;83097;-69
2023/05/21 06:05:40;;;;;;;11.65;7.55;;;23.70;64.20;;;;;;7573604;23;82560;-69
2023/05/21 06:08:41;;;;;;;11.00;6.38;;;23.70;63.90;;;;;;7603741;23;80382;-70
2023/05/21 06:11:41;;;;;;;9.23;6.47;;;23.70;63.90;;;;;;7599638;23;80455;-67
2023/05/21 06:14:44;;;;;;;8.07;5.88;;;23.70;63.60;;;;;;7602819;23;80311;-62
2023/05/21 06:17:45;;;;;;;10.93;6.25;;;23.70;63.40;;;;;;7603500;23;80524;-69
2023/05/21 06:20:46;;;;;;;10.98;6.80;;;23.70;63.40;;;;;;7576026;23;83371;-69
2023/05/21 06:23:47;;;;;;;9.88;6.05;;;23.70;63.40;;;;;;7575248;23;83330;-68
2023/05/21 06:26:49;;;;;;;10.60;6.50;;;23.70;63.40;;;;;;7555394;23;83181;-66
2023/05/21 06:29:50;;;;;;;11.77;6.90;;;23.70;64.10;;;;;;7569455;23;83348;-67
2023/05/21 06:32:50;;;;;;;8.88;6.43;;;23.70;64.40;;;;;;7585201;23;81211;-66
2023/05/21 06:35:51;;;;;;;12.82;6.68;;;23.70;64.10;;;;;;7572822;23;83373;-66
2023/05/21 06:38:52;;;;;;;9.23;5.90;;;23.80;63.70;;;;;;7597537;23;80826;-68
2023/05/21 06:41:53;;;;;;;9.77;7.28;;;23.80;63.50;;;;;;7573767;23;82436;-56
2023/05/21 06:45:11;;;;;;;9.52;6.68;;;23.80;63.20;;;;;;7600316;23;86159;-57
2023/05/21 06:48:16;;;;;;;9.70;6.18;;;23.80;63.00;;;;;;7576977;23;82859;-52
2023/05/21 06:51:17;;;;;;;7.22;5.72;;;23.80;62.70;;;;;;7576663;23;83108;-51
2023/05/21 06:54:17;;;;;;;14.98;8.18;;;23.80;62.60;;;;;;7602504;23;80940;-57
2023/05/21 06:57:18;;;;;;;10.18;7.13;;;23.80;62.50;;;;;;7575420;23;83102;-56
2023/05/21 07:00:18;;;;;;;24.95;6.95;;;23.80;62.40;;;;;;7549745;23;83206;-56
2023/05/21 07:03:19;;;;;;;8.90;5.72;;;23.80;62.40;;;;;;7574520;23;84037;-57
2023/05/21 07:06:21;;;;;;;9.05;6.03;;;23.80;62.60;;;;;;7568618;23;81953;-56
2023/05/21 07:09:21;;;;;;;9.30;5.93;;;23.90;63.20;;;;;;7576073;23;82534;-58
2023/05/21 07:12:22;;;;;;;11.98;5.63;;;23.90;63.00;;;;;;7576302;23;82205;-57
2023/05/21 07:15:23;;;;;;;7.90;6.15;;;23.90;62.80;;;;;;7571009;23;82438;-57
2023/05/21 07:18:24;;;;;;;8.50;6.05;;;23.90;61.80;;;;;;7574812;23;83001;-68
2023/05/21 07:21:24;;;;;;;12.55;5.90;;;23.90;62.60;;;;;;7575450;23;83266;-70
2023/05/21 07:24:26;;;;;;;15.63;5.88;;;23.90;62.40;;;;;;7558026;23;82485;-65
2023/05/21 07:27:27;;;;;;;7.15;5.80;;;23.90;62.40;;;;;;7573996;23;83369;-65
2023/05/21 07:30:28;;;;;;;9.27;5.80;;;23.80;62.50;;;;;;7569925;23;81927;-63
2023/05/21 07:33:29;;;;;;;9.63;6.90;;;23.80;62.30;;;;;;7574812;23;83127;-65
2023/05/21 07:36:32;;;;;;;9.02;5.80;;;23.90;62.20;;;;;;7595122;23;80451;-70
2023/05/21 07:39:33;;;;;;;7.63;5.70;;;23.90;62.50;;;;;;7566349;23;83278;-69
2023/05/21 07:42:33;;;;;;;13.55;5.88;;;24.00;63.10;;;;;;7573204;23;83076;-74
2023/05/21 07:45:35;;;;;;;10.85;6.28;;;24.00;63.40;;;;;;7575693;23;83251;-70
2023/05/21 07:48:36;;;;;;;12.98;5.20;;;24.00;63.60;;;;;;7572518;23;82909;-71
2023/05/21 07:51:44;;;;;;;11.02;5.40;;;24.00;63.80;;;;;;6153110;28;78875;-72
2023/05/21 07:54:45;;;;;;;8.48;6.13;;;24.00;63.60;;;;;;6139267;28;80426;-63
2023/05/21 07:57:46;;;;;;;10.10;6.13;;;24.00;63.60;;;;;;6113518;28;81880;-61
2023/05/21 08:00:49;;;;;;;8.52;5.70;;;24.00;63.60;;;;;;6139475;28;83224;-61
2023/05/21 08:03:51;;;;;;;9.90;6.03;;;24.10;63.60;;;;;;6104703;28;82644;-64
2023/05/21 08:06:52;;;;;;;11.43;6.18;;;24.10;63.60;;;;;;6103883;28;80565;-63
2023/05/21 08:09:53;;;;;;;8.35;5.85;;;24.10;63.40;;;;;;6102404;28;80366;-61
2023/05/21 08:12:53;;;;;;;9.60;6.18;;;24.20;63.10;;;;;;6108534;28;80248;-65
2023/05/21 08:15:55;;;;;;;8.35;5.43;;;24.30;62.90;;;;;;6091815;28;85030;-66
2023/05/21 08:18:56;;;;;;;11.48;5.97;;;24.30;63.00;;;;;;6105096;28;82438;-63
2023/05/21 08:21:57;;;;;;;8.50;5.63;;;24.30;62.70;;;;;;6136074;28;85182;-61
2023/05/21 08:24:58;;;;;;;9.52;5.72;;;24.30;62.80;;;;;;6135739;28;81304;-65
2023/05/21 08:27:58;;;;;;;9.35;5.97;;;24.40;62.70;;;;;;6096438;28;81416;-66
2023/05/21 08:30:59;;;;;;;7.68;4.78;;;24.50;62.60;;;;;;6133977;28;83219;-65
2023/05/21 08:34:00;;;;;;;11.20;5.80;;;24.40;62.60;;;;;;6100908;28;83072;-63
2023/05/21 08:37:21;;;;;;;9.73;5.15;;;24.40;62.30;;;;;;6098027;28;81242;-61
2023/05/21 08:40:45;;;;;;;154.40;86.07;;;24.30;62.20;;;;;;6130851;28;83004;-65
2023/05/21 08:43:46;;;;;;;180.25;102.78;;;24.30;62.20;;;;;;6111023;28;85495;-65
2023/05/21 08:46:47;;;;;;;195.52;110.93;;;24.30;62.30;;;;;;6102190;28;88396;-65
2023/05/21 08:49:47;;;;;;;185.02;103.82;;;24.30;62.30;;;;;;6108314;28;90517;-66
2023/05/21 08:52:48;;;;;;;232.35;128.73;;;24.30;62.00;;;;;;6108744;28;86727;-65
2023/05/21 08:55:49;;;;;;;214.48;121.60;;;24.30;62.20;;;;;;6100306;28;88560;-63
2023/05/21 08:58:49;;;;;;;214.35;118.97;;;24.40;62.00;;;;;;6096665;28;88285;-68
2023/05/21 09:01:53;;;;;;;235.07;133.52;;;24.40;62.30;;;;;;6091474;28;90786;-65
2023/05/21 09:05:01;;;;;;;203.55;113.60;;;24.40;62.30;;;;;;6100801;28;88482;-67
2023/05/21 09:08:04;;;;;;;209.52;115.05;;;24.40;62.20;;;;;;6085444;28;90185;-69
2023/05/21 09:11:22;;;;;;;165.57;92.57;;;24.40;62.00;;;;;;6083152;28;89636;-70
2023/05/21 09:14:28;;;;;;;204.80;110.82;;;24.40;61.30;;;;;;6079163;28;87029;-68
2023/05/21 09:17:41;;;;;;;174.75;97.60;;;24.40;62.00;;;;;;6079979;28;85924;-64
2023/05/21 09:21:01;;;;;;;154.25;88.53;;;24.50;61.90;;;;;;6079904;28;85778;-66
2023/05/21 09:24:02;;;;;;;151.90;82.38;;;24.50;61.80;;;;;;6105312;28;85867;-74
2023/05/21 09:27:03;;;;;;;124.97;70.93;;;24.60;61.90;;;;;;6092121;28;85829;-66
2023/05/21 09:30:04;;;;;;;131.63;70.93;;;24.60;61.70;;;;;;6103720;28;84385;-71
2023/05/21 09:33:05;;;;;;;123.85;66.43;;;24.70;61.60;;;;;;6090631;28;86019;-64
2023/05/21 09:36:06;;;;;;;112.60;60.38;;;24.70;61.50;;;;;;6081969;28;84436;-63
2023/05/21 09:39:07;;;;;;;110.25;58.40;;;24.70;61.40;;;;;;6093978;28;86386;-63
2023/05/21 09:42:09;;;;;;;94.40;52.47;;;24.70;61.30;;;;;;6077544;28;86101;-61
2023/05/21 09:45:10;;;;;;;91.65;51.33;;;24.70;61.40;;;;;;6083985;28;86007;-64
2023/05/21 09:48:11;;;;;;;85.63;48.67;;;24.70;61.20;;;;;;6095448;28;84960;-66
2023/05/21 09:51:12;;;;;;;76.47;44.00;;;24.80;61.00;;;;;;6124659;28;87032;-65
2023/05/21 09:54:12;;;;;;;83.65;45.95;;;24.80;61.20;;;;;;6089819;28;82986;-63
2023/05/21 09:57:13;;;;;;;72.57;42.13;;;24.80;61.10;;;;;;6090436;28;84029;-65
2023/05/21 10:00:13;;;;;;;70.30;37.97;;;24.90;61.20;;;;;;6098865;28;83179;-67
2023/05/21 10:03:15;;;;;;;68.85;37.92;;;24.80;61.20;;;;;;6091041;28;84104;-66
2023/05/21 10:06:16;;;;;;;55.08;29.52;;;24.80;62.90;;;;;;6089805;28;83565;-74
2023/05/21 10:09:16;;;;;;;42.25;21.98;;;24.90;61.70;;;;;;6101225;28;82889;-72
2023/05/21 10:12:17;;;;;;;33.45;19.75;;;24.90;61.20;;;;;;6102789;28;83656;-74
2023/05/21 10:15:19;;;;;;;24.48;11.75;;;24.90;61.20;;;;;;6080125;28;86958;-75
2023/05/21 10:18:20;;;;;;;18.85;8.63;;;24.80;58.50;;;;;;6100762;28;83545;-76
2023/05/21 10:21:21;;;;;;;8.73;6.25;;;24.70;57.40;;;;;;6102538;28;83026;-57
2023/05/21 10:24:22;;;;;;;7.22;5.13;;;24.60;56.00;;;;;;6085646;28;82710;-58
2023/05/21 10:27:22;;;;;;;6.18;4.80;;;24.50;55.80;;;;;;6090134;28;80752;-56
2023/05/21 10:30:23;;;;;;;11.80;4.47;;;24.40;55.60;;;;;;6088395;28;80836;-57
2023/05/21 10:33:23;;;;;;;6.38;4.43;;;24.40;55.20;;;;;;6095626;28;80350;-59
2023/05/21 10:36:24;;;;;;;7.88;4.10;;;24.40;55.40;;;;;;6090842;28;81132;-59
2023/05/21 10:39:25;;;;;;;7.43;4.38;;;24.30;55.30;;;;;;6089806;28;80444;-57
2023/05/21 10:42:26;;;;;;;5.80;3.83;;;24.30;55.30;;;;;;6090388;28;80946;-58
2023/05/21 10:45:26;;;;;;;8.57;4.18;;;24.30;55.40;;;;;;6088158;28;80900;-57
2023/05/21 10:48:27;;;;;;;5.65;4.13;;;24.30;55.90;;;;;;6086932;28;83159;-58
2023/05/21 10:51:28;;;;;;;13.65;4.68;;;24.40;56.20;;;;;;6087930;28;80345;-58
2023/05/21 10:54:28;;;;;;;8.77;4.68;;;24.40;56.30;;;;;;6101664;28;80564;-57
2023/05/21 10:57:29;;;;;;;11.75;4.30;;;24.40;55.60;;;;;;6088755;28;80483;-77
2023/05/21 11:00:30;;;;;;;10.07;5.45;;;24.30;56.20;;;;;;6092425;28;80754;-78
2023/05/21 11:03:30;;;;;;;10.65;4.75;;;24.30;56.00;;;;;;6117053;28;80645;-78
2023/05/21 11:06:31;;;;;;;8.77;4.88;;;24.30;56.60;;;;;;6093834;28;82611;-75
2023/05/21 11:09:32;;;;;;;16.90;3.92;;;24.20;54.70;;;;;;6083955;28;81082;-77
2023/05/21 11:12:32;;;;;;;8.05;4.13;;;24.30;54.00;;;;;;6094780;28;80693;-74
2023/05/21 11:15:33;;;;;;;6.07;4.15;;;24.30;54.40;;;;;;6087140;28;81450;-63
2023/05/21 11:18:33;;;;;;;6.43;3.40;;;24.30;54.40;;;;;;6083070;28;80401;-61
2023/05/21 11:21:34;;;;;;;4.78;3.40;;;24.40;54.60;;;;;;6097455;28;81298;-65
2023/05/21 11:24:34;;;;;;;6.15;3.45;;;24.40;54.60;;;;;;6082732;28;84532;-62
2023/05/21 11:27:35;;;;;;;5.50;3.40;;;24.40;55.10;;;;;;6082579;28;83985;-63
2023/05/21 11:30:35;;;;;;;7.80;3.38;;;24.40;53.10;;;;;;6090439;28;81011;-61
2023/05/21 11:33:36;;;;;;;4.60;3.58;;;24.40;53.20;;;;;;6089959;28;82188;-61
2023/05/21 11:36:37;;;;;;;10.32;3.55;;;24.40;52.90;;;;;;6093481;28;80963;-71
2023/05/21 11:39:38;;;;;;;8.95;3.55;;;24.30;52.60;;;;;;6093692;28;80766;-71
2023/05/21 11:42:41;;;;;;;5.85;3.38;;;24.40;51.90;;;;;;6078784;28;80889;-60
2023/05/21 11:45:45;;;;;;;6.88;3.22;;;24.40;52.50;;;;;;6089658;28;80591;-61
2023/05/21 11:48:46;;;;;;;8.57;4.15;;;24.60;53.90;;;;;;6089277;28;80497;-60
2023/05/21 11:51:47;;;;;;;6.90;2.92;;;24.50;52.80;;;;;;6091063;28;80536;-60
2023/05/21 11:54:49;;;;;;;5.43;3.25;;;24.60;53.10;;;;;;6075841;28;80285;-67
2023/05/21 11:57:51;;;;;;;6.32;3.33;;;24.70;53.10;;;;;;6081523;28;83019;-72
2023/05/21 12:00:51;;;;;;;4.38;3.35;;;24.70;52.10;;;;;;6080265;28;80607;-67
2023/05/21 12:03:52;;;;;;;5.97;3.42;;;24.70;51.40;;;;;;6080013;28;83115;-68
2023/05/21 12:06:53;;;;;;;7.50;2.97;;;24.70;52.10;;;;;;6083317;28;80860;-70
2023/05/21 12:09:53;;;;;;;8.52;3.58;;;24.70;52.00;;;;;;6085970;28;80837;-63
2023/05/21 12:12:54;;;;;;;5.00;3.30;;;24.70;51.20;;;;;;6086615;28;80233;-61
2023/05/21 12:15:54;;;;;;;9.02;2.90;;;24.70;50.60;;;;;;6081622;28;80400;-63
2023/05/21 12:18:56;;;;;;;4.13;3.20;;;24.60;51.40;;;;;;6081568;28;81650;-62
2023/05/21 12:21:57;;;;;;;5.60;3.35;;;24.60;51.20;;;;;;6080431;28;80863;-55
2023/05/21 12:24:59;;;;;;;4.72;3.10;;;24.60;51.40;;;;;;6085394;28;80870;-56
2023/05/21 12:28:00;;;;;;;7.28;3.58;;;24.70;50.50;;;;;;6072105;28;87492;-59
2023/05/21 12:31:01;;;;;;;7.15;3.10;;;24.70;50.20;;;;;;6087073;28;80553;-63
2023/05/21 12:34:01;;;;;;;6.35;3.10;;;24.60;50.00;;;;;;6081397;28;81567;-60
2023/05/21 12:37:02;;;;;;;5.25;3.17;;;24.60;50.00;;;;;;6073557;28;81801;-60
2023/05/21 12:40:12;;;;;;;6.30;3.03;;;24.70;49.90;;;;;;6100055;28;82836;-58
2023/05/21 12:43:12;;;;;;;10.50;3.22;;;24.70;49.30;;;;;;6085118;28;82025;-60
2023/05/21 12:46:13;;;;;;;5.20;3.15;;;24.70;49.40;;;;;;6083051;28;81728;-59
2023/05/21 12:49:14;;;;;;;7.47;3.58;;;24.60;49.20;;;;;;6082901;28;82219;-58
2023/05/21 12:52:14;;;;;;;10.80;3.10;;;24.60;49.10;;;;;;6080538;28;81122;-58
2023/05/21 12:55:15;;;;;;;10.27;5.32;;;24.60;48.80;;;;;;6083425;28;81543;-58
2023/05/21 12:58:16;;;;;;;5.75;3.95;;;24.60;48.30;;;;;;6081865;28;81362;-60
2023/05/21 13:01:16;;;;;;;5.18;3.40;;;24.60;48.20;;;;;;6079388;28;80911;-58
2023/05/21 13:04:17;;;;;;;6.72;3.30;;;24.60;48.40;;;;;;6069241;28;85248;-53
2023/05/21 13:07:17;;;;;;;13.55;3.83;;;24.70;49.00;;;;;;6053322;28;85222;-62
2023/05/21 13:10:18;;;;;;;6.18;2.90;;;24.70;48.50;;;;;;6082708;28;80377;-64
2023/05/21 13:13:18;;;;;;;11.65;3.10;;;24.70;48.40;;;;;;6082515;28;81291;-61
2023/05/21 13:16:20;;;;;;;14.73;3.03;;;24.80;48.60;;;;;;6091443;28;80305;-64
2023/05/21 13:19:21;;;;;;;11.60;3.42;;;24.70;48.00;;;;;;6084585;28;80569;-59
2023/05/21 13:22:21;;;;;;;4.47;2.75;;;24.70;48.20;;;;;;6099139;28;81783;-61
2023/05/21 13:25:23;;;;;;;10.30;3.78;;;24.70;47.80;;;;;;6083121;28;80932;-51
2023/05/21 13:28:24;;;;;;;6.38;3.40;;;24.70;48.00;;;;;;6086053;28;81231;-58
2023/05/21 13:31:24;;;;;;;8.15;3.40;;;24.70;48.60;;;;;;6090480;28;81530;-51
2023/05/21 13:34:25;;;;;;;12.27;4.32;;;24.70;48.60;;;;;;6081227;28;81072;-50
2023/05/21 13:37:25;;;;;;;13.77;7.97;;;24.70;48.80;;;;;;6082296;28;81265;-52
2023/05/21 13:40:26;;;;;;;17.45;13.57;;;24.80;49.00;;;;;;6080776;28;81297;-50
2023/05/21 13:43:27;;;;;;;23.05;17.77;;;24.80;48.60;;;;;;6066495;28;82811;-54
2023/05/21 13:46:27;;;;;;;12.38;8.52;;;24.90;48.80;;;;;;6087507;28;83930;-50
2023/05/21 13:49:28;;;;;;;10.25;6.75;;;24.90;47.90;;;;;;6092840;28;81781;-51
2023/05/21 13:52:28;;;;;;;11.27;7.63;;;24.80;46.80;;;;;;6092431;28;81381;-55
2023/05/21 13:55:29;;;;;;;12.40;5.50;;;24.80;47.10;;;;;;6091649;28;80370;-55
2023/05/21 13:58:33;;;;;;;10.60;4.05;;;24.80;47.30;;;;;;6098331;28;80546;-49
2023/05/21 14:01:33;;;;;;;4.10;3.03;;;24.80;46.70;;;;;;6092729;28;81159;-54
2023/05/21 14:04:34;;;;;;;5.13;2.95;;;24.80;47.10;;;;;;6088834;28;81308;-58
2023/05/21 14:07:35;;;;;;;7.25;2.88;;;24.70;46.40;;;;;;6102000;28;80171;-60
2023/05/21 14:10:35;;;;;;;10.18;3.03;;;24.70;46.60;;;;;;6111274;28;80518;-60
2023/05/21 14:13:36;;;;;;;7.47;3.17;;;24.70;46.50;;;;;;6099425;28;81056;-59
2023/05/21 14:16:36;;;;;;;4.00;2.60;;;24.70;46.50;;;;;;6098880;28;80938;-61
2023/05/21 14:19:37;;;;;;;4.95;2.60;;;24.70;46.60;;;;;;6095339;28;80666;-60
2023/05/21 14:22:37;;;;;;;6.38;2.80;;;24.70;46.40;;;;;;6098260;28;80846;-60
2023/05/21 14:25:38;;;;;;;3.72;2.58;;;24.70;46.40;;;;;;6099288;28;80453;-60
2023/05/21 14:28:38;;;;;;;7.75;2.95;;;24.70;46.30;;;;;;6094155;28;81385;-60
2023/05/21 14:31:39;;;;;;;8.40;2.72;;;24.70;46.20;;;;;;6095933;28;81273;-60
2023/05/21 14:34:40;;;;;;;3.15;2.33;;;24.60;45.90;;;;;;6087859;28;83151;-60
2023/05/21 14:37:40;;;;;;;5.15;2.70;;;24.70;46.10;;;;;;6088387;28;80557;-59
2023/05/21 14:40:41;;;;;;;8.68;3.10;;;24.70;45.50;;;;;;6100423;28;83896;-60
2023/05/21 14:43:41;;;;;;;9.30;2.92;;;24.70;45.40;;;;;;6091758;28;80473;-60
2023/05/21 14:46:42;;;;;;;5.10;2.63;;;24.70;45.60;;;;;;6082360;28;82804;-59
2023/05/21 14:49:42;;;;;;;4.72;2.88;;;24.60;45.50;;;;;;6083066;28;81859;-60
2023/05/21 14:52:43;;;;;;;5.10;2.90;;;24.70;45.90;;;;;;6074993;28;85638;-61
2023/05/21 14:55:44;;;;;;;3.90;2.60;;;24.70;46.40;;;;;;6089350;28;80621;-60
2023/05/21 14:58:44;;;;;;;7.50;2.33;;;24.60;46.00;;;;;;6082649;28;85464;-59
2023/05/21 15:01:45;;;;;;;11.50;3.05;;;24.60;46.40;;;;;;6072647;28;83032;-63
2023/05/21 15:04:45;;;;;;;6.85;2.83;;;24.70;46.30;;;;;;6086529;28;80511;-63
2023/05/21 15:07:46;;;;;;;7.47;3.08;;;24.70;46.40;;;;;;6083669;28;84641;-64
2023/05/21 15:10:46;;;;;;;4.35;2.85;;;24.70;46.20;;;;;;6083954;28;81294;-59
2023/05/21 15:13:47;;;;;;;6.20;2.75;;;24.70;46.50;;;;;;6087631;28;80710;-61
2023/05/21 15:16:47;;;;;;;4.47;2.60;;;24.70;46.40;;;;;;6078867;28;84093;-60
2023/05/21 15:19:48;;;;;;;7.20;2.53;;;24.70;47.00;;;;;;6078972;28;81953;-61
2023/05/21 15:22:48;;;;;;;8.02;2.78;;;24.70;47.70;;;;;;6087696;28;81666;-59
2023/05/21 15:25:49;;;;;;;8.00;2.95;;;24.70;47.50;;;;;;6078328;28;82559;-60
2023/05/21 15:28:49;;;;;;;6.72;2.88;;;24.70;49.20;;;;;;6080724;28;81477;-57
2023/05/21 15:31:50;;;;;;;5.35;2.78;;;24.80;48.40;;;;;;6085235;28;80429;-55
2023/05/21 15:34:50;;;;;;;9.68;2.92;;;24.70;48.70;;;;;;6086205;28;83277;-59
2023/05/21 15:37:51;;;;;;;10.32;3.13;;;24.70;48.80;;;;;;6082717;28;80362;-57